sensor_id;sensor_type;location;lat;lon;timestamp;P1;durP1;ratioP1;P2;durP2;ratioP2
47772;SDS011;33534;51.028;13.716;2023-12-20T00:00:29;232.02;;;152.25;;
47772;SDS011;33534;51.028;13.716;2023-12-20T00:02:55;215.32;;;146.80;;
47772;SDS011;33534;51.028;13.716;2023-12-20T00:05:21;212.23;;;142.35;;
47772;SDS011;33534;51.028;13.716;2023-12-20T00:07:47;214.10;;;144.27;;
47772;SDS011;33534;51.028;13.716;2023-12-20T00:10:13;212.55;;;144.25;;
47772;SDS011;33534;51.028;13.716;2023-12-20T00:12:39;219.05;;;144.25;;
47772;SDS011;33534;51.028;13.716;2023-12-20T00:15:06;213.07;;;142.63;;
47772;SDS011;33534;51.028;13.716;2023-12-20T00:17:32;208.85;;;141.68;;
47772;SDS011;33534;51.028;13.716;2023-12-20T00:19:58;204.57;;;140.10;;
47772;SDS011;33534;51.028;13.716;2023-12-20T00:22:24;206.45;;;136.52;;
47772;SDS011;33534;51.028;13.716;2023-12-20T00:24:50;213.23;;;139.25;;
47772;SDS011;33534;51.028;13.716;2023-12-20T00:27:16;204.52;;;138.27;;
47772;SDS011;33534;51.028;13.716;2023-12-20T00:29:42;205.02;;;138.60;;
47772;SDS011;33534;51.028;13.716;2023-12-20T00:32:12;201.48;;;133.68;;
47772;SDS011;33534;51.028;13.716;2023-12-20T00:34:38;194.38;;;131.68;;
47772;SDS011;33534;51.028;13.716;2023-12-20T00:37:04;205.68;;;132.52;;
47772;SDS011;33534;51.028;13.716;2023-12-20T00:39:31;199.88;;;127.55;;
47772;SDS011;33534;51.028;13.716;2023-12-20T00:41:58;201.55;;;131.13;;
47772;SDS011;33534;51.028;13.716;2023-12-20T00:44:24;195.95;;;125.32;;
47772;SDS011;33534;51.028;13.716;2023-12-20T00:46:50;188.38;;;125.85;;
47772;SDS011;33534;51.028;13.716;2023-12-20T00:49:16;198.10;;;126.95;;
47772;SDS011;33534;51.028;13.716;2023-12-20T00:51:42;195.57;;;128.55;;
47772;SDS011;33534;51.028;13.716;2023-12-20T00:54:08;190.65;;;124.75;;
47772;SDS011;33534;51.028;13.716;2023-12-20T00:56:34;188.98;;;125.53;;
47772;SDS011;33534;51.028;13.716;2023-12-20T00:59:01;188.63;;;124.45;;
47772;SDS011;33534;51.028;13.716;2023-12-20T01:01:26;204.80;;;122.57;;
47772;SDS011;33534;51.028;13.716;2023-12-20T01:03:52;187.68;;;120.63;;
47772;SDS011;33534;51.028;13.716;2023-12-20T01:06:18;187.68;;;123.28;;
47772;SDS011;33534;51.028;13.716;2023-12-20T01:08:44;177.25;;;118.63;;
47772;SDS011;33534;51.028;13.716;2023-12-20T01:11:10;178.48;;;119.32;;
47772;SDS011;33534;51.028;13.716;2023-12-20T01:13:36;183.15;;;120.75;;
47772;SDS011;33534;51.028;13.716;2023-12-20T01:16:02;178.27;;;116.10;;
47772;SDS011;33534;51.028;13.716;2023-12-20T01:18:29;176.98;;;116.97;;
47772;SDS011;33534;51.028;13.716;2023-12-20T01:20:55;170.27;;;115.05;;
47772;SDS011;33534;51.028;13.716;2023-12-20T01:23:21;164.32;;;111.90;;
47772;SDS011;33534;51.028;13.716;2023-12-20T01:25:47;163.40;;;111.40;;
47772;SDS011;33534;51.028;13.716;2023-12-20T01:28:13;171.77;;;113.35;;
47772;SDS011;33534;51.028;13.716;2023-12-20T01:30:39;165.15;;;110.10;;
47772;SDS011;33534;51.028;13.716;2023-12-20T01:33:05;162.63;;;112.05;;
47772;SDS011;33534;51.028;13.716;2023-12-20T01:35:31;162.23;;;108.78;;
47772;SDS011;33534;51.028;13.716;2023-12-20T01:37:57;165.52;;;109.93;;
47772;SDS011;33534;51.028;13.716;2023-12-20T01:40:23;165.43;;;109.30;;
47772;SDS011;33534;51.028;13.716;2023-12-20T01:43:02;168.27;;;106.63;;
47772;SDS011;33534;51.028;13.716;2023-12-20T01:45:28;160.73;;;109.03;;
47772;SDS011;33534;51.028;13.716;2023-12-20T01:47:55;159.02;;;106.15;;
47772;SDS011;33534;51.028;13.716;2023-12-20T01:50:21;159.00;;;106.13;;
47772;SDS011;33534;51.028;13.716;2023-12-20T01:52:47;151.13;;;104.70;;
47772;SDS011;33534;51.028;13.716;2023-12-20T01:55:14;151.45;;;102.70;;
47772;SDS011;33534;51.028;13.716;2023-12-20T01:57:43;150.40;;;101.32;;
47772;SDS011;33534;51.028;13.716;2023-12-20T02:00:10;148.00;;;100.60;;
47772;SDS011;33534;51.028;13.716;2023-12-20T02:02:38;150.07;;;99.57;;
47772;SDS011;33534;51.028;13.716;2023-12-20T02:05:05;146.35;;;100.40;;
47772;SDS011;33534;51.028;13.716;2023-12-20T02:07:31;151.20;;;99.55;;
47772;SDS011;33534;51.028;13.716;2023-12-20T02:09:58;150.98;;;102.15;;
47772;SDS011;33534;51.028;13.716;2023-12-20T02:12:24;142.27;;;97.10;;
47772;SDS011;33534;51.028;13.716;2023-12-20T02:14:50;143.55;;;96.93;;
47772;SDS011;33534;51.028;13.716;2023-12-20T02:17:16;142.88;;;97.55;;
47772;SDS011;33534;51.028;13.716;2023-12-20T02:19:43;138.52;;;94.38;;
47772;SDS011;33534;51.028;13.716;2023-12-20T02:22:12;139.27;;;95.00;;
47772;SDS011;33534;51.028;13.716;2023-12-20T02:24:38;140.85;;;95.53;;
47772;SDS011;33534;51.028;13.716;2023-12-20T02:27:07;133.02;;;93.30;;
47772;SDS011;33534;51.028;13.716;2023-12-20T02:29:34;136.02;;;93.78;;
47772;SDS011;33534;51.028;13.716;2023-12-20T02:32:00;136.25;;;93.07;;
47772;SDS011;33534;51.028;13.716;2023-12-20T02:34:26;133.43;;;90.38;;
47772;SDS011;33534;51.028;13.716;2023-12-20T02:36:52;133.63;;;91.50;;
47772;SDS011;33534;51.028;13.716;2023-12-20T02:39:18;136.93;;;91.78;;
47772;SDS011;33534;51.028;13.716;2023-12-20T02:41:45;133.35;;;90.45;;
47772;SDS011;33534;51.028;13.716;2023-12-20T02:44:11;124.95;;;87.32;;
47772;SDS011;33534;51.028;13.716;2023-12-20T02:46:37;127.70;;;86.50;;
47772;SDS011;33534;51.028;13.716;2023-12-20T02:49:03;126.30;;;86.32;;
47772;SDS011;33534;51.028;13.716;2023-12-20T02:51:29;127.38;;;85.18;;
47772;SDS011;33534;51.028;13.716;2023-12-20T02:53:54;126.90;;;87.03;;
47772;SDS011;33534;51.028;13.716;2023-12-20T02:56:20;123.53;;;84.55;;
47772;SDS011;33534;51.028;13.716;2023-12-20T02:58:46;122.32;;;84.53;;
47772;SDS011;33534;51.028;13.716;2023-12-20T03:01:12;118.78;;;82.75;;
47772;SDS011;33534;51.028;13.716;2023-12-20T03:03:39;123.60;;;82.38;;
47772;SDS011;33534;51.028;13.716;2023-12-20T03:06:05;115.93;;;80.97;;
47772;SDS011;33534;51.028;13.716;2023-12-20T03:08:31;115.25;;;80.43;;
47772;SDS011;33534;51.028;13.716;2023-12-20T03:10:59;116.07;;;80.68;;
47772;SDS011;33534;51.028;13.716;2023-12-20T03:13:25;119.80;;;81.85;;
47772;SDS011;33534;51.028;13.716;2023-12-20T03:15:51;115.43;;;80.75;;
47772;SDS011;33534;51.028;13.716;2023-12-20T03:18:17;123.05;;;78.68;;
47772;SDS011;33534;51.028;13.716;2023-12-20T03:20:43;113.90;;;76.80;;
47772;SDS011;33534;51.028;13.716;2023-12-20T03:23:09;116.40;;;77.65;;
47772;SDS011;33534;51.028;13.716;2023-12-20T03:25:35;111.63;;;77.45;;
47772;SDS011;33534;51.028;13.716;2023-12-20T03:28:01;110.97;;;75.43;;
47772;SDS011;33534;51.028;13.716;2023-12-20T03:30:27;117.45;;;74.70;;
47772;SDS011;33534;51.028;13.716;2023-12-20T03:32:53;104.80;;;73.22;;
47772;SDS011;33534;51.028;13.716;2023-12-20T03:35:19;118.63;;;73.90;;
47772;SDS011;33534;51.028;13.716;2023-12-20T03:37:45;109.20;;;73.35;;
47772;SDS011;33534;51.028;13.716;2023-12-20T03:40:11;105.30;;;71.75;;
47772;SDS011;33534;51.028;13.716;2023-12-20T03:42:37;110.32;;;73.85;;
47772;SDS011;33534;51.028;13.716;2023-12-20T03:45:03;106.22;;;70.10;;
47772;SDS011;33534;51.028;13.716;2023-12-20T03:47:29;101.25;;;70.68;;
47772;SDS011;33534;51.028;13.716;2023-12-20T03:49:55;103.45;;;70.63;;
47772;SDS011;33534;51.028;13.716;2023-12-20T03:52:21;103.35;;;69.95;;
47772;SDS011;33534;51.028;13.716;2023-12-20T03:54:47;101.72;;;66.95;;
47772;SDS011;33534;51.028;13.716;2023-12-20T03:57:13;94.40;;;67.00;;
47772;SDS011;33534;51.028;13.716;2023-12-20T03:59:39;100.40;;;67.43;;
47772;SDS011;33534;51.028;13.716;2023-12-20T04:02:05;100.32;;;67.43;;
47772;SDS011;33534;51.028;13.716;2023-12-20T04:04:31;94.43;;;65.70;;
47772;SDS011;33534;51.028;13.716;2023-12-20T04:06:57;93.35;;;64.10;;
47772;SDS011;33534;51.028;13.716;2023-12-20T04:09:23;96.47;;;64.90;;
47772;SDS011;33534;51.028;13.716;2023-12-20T04:11:49;100.25;;;65.10;;
47772;SDS011;33534;51.028;13.716;2023-12-20T04:14:16;95.03;;;62.78;;
47772;SDS011;33534;51.028;13.716;2023-12-20T04:16:42;94.25;;;63.97;;
47772;SDS011;33534;51.028;13.716;2023-12-20T04:19:08;97.07;;;64.57;;
47772;SDS011;33534;51.028;13.716;2023-12-20T04:21:34;94.47;;;64.18;;
47772;SDS011;33534;51.028;13.716;2023-12-20T04:24:00;96.68;;;63.03;;
47772;SDS011;33534;51.028;13.716;2023-12-20T04:26:26;88.68;;;57.95;;
47772;SDS011;33534;51.028;13.716;2023-12-20T04:28:51;85.90;;;58.75;;
47772;SDS011;33534;51.028;13.716;2023-12-20T04:31:17;88.68;;;60.20;;
47772;SDS011;33534;51.028;13.716;2023-12-20T04:33:43;86.95;;;59.03;;
47772;SDS011;33534;51.028;13.716;2023-12-20T04:36:09;85.03;;;59.55;;
47772;SDS011;33534;51.028;13.716;2023-12-20T04:38:35;86.88;;;59.35;;
47772;SDS011;33534;51.028;13.716;2023-12-20T04:41:01;84.85;;;55.92;;
47772;SDS011;33534;51.028;13.716;2023-12-20T04:43:27;91.05;;;59.08;;
47772;SDS011;33534;51.028;13.716;2023-12-20T04:45:54;82.30;;;55.42;;
47772;SDS011;33534;51.028;13.716;2023-12-20T04:48:20;82.32;;;57.00;;
47772;SDS011;33534;51.028;13.716;2023-12-20T04:50:46;80.90;;;55.45;;
47772;SDS011;33534;51.028;13.716;2023-12-20T04:53:12;80.80;;;54.25;;
47772;SDS011;33534;51.028;13.716;2023-12-20T04:55:38;76.30;;;54.35;;
47772;SDS011;33534;51.028;13.716;2023-12-20T04:58:04;83.40;;;54.80;;
47772;SDS011;33534;51.028;13.716;2023-12-20T05:00:30;79.93;;;54.33;;
47772;SDS011;33534;51.028;13.716;2023-12-20T05:02:56;75.25;;;52.05;;
47772;SDS011;33534;51.028;13.716;2023-12-20T05:05:22;76.90;;;50.72;;
47772;SDS011;33534;51.028;13.716;2023-12-20T05:07:48;85.43;;;54.40;;
47772;SDS011;33534;51.028;13.716;2023-12-20T05:10:14;78.68;;;51.05;;
47772;SDS011;33534;51.028;13.716;2023-12-20T05:12:40;79.65;;;49.33;;
47772;SDS011;33534;51.028;13.716;2023-12-20T05:15:06;74.85;;;50.65;;
47772;SDS011;33534;51.028;13.716;2023-12-20T05:17:32;79.05;;;50.13;;
47772;SDS011;33534;51.028;13.716;2023-12-20T05:19:58;78.60;;;50.78;;
47772;SDS011;33534;51.028;13.716;2023-12-20T05:22:24;71.18;;;47.75;;
47772;SDS011;33534;51.028;13.716;2023-12-20T05:24:52;76.40;;;49.28;;
47772;SDS011;33534;51.028;13.716;2023-12-20T05:27:18;78.80;;;48.40;;
47772;SDS011;33534;51.028;13.716;2023-12-20T05:29:44;73.93;;;47.45;;
47772;SDS011;33534;51.028;13.716;2023-12-20T05:32:10;67.38;;;45.90;;
47772;SDS011;33534;51.028;13.716;2023-12-20T05:34:36;68.63;;;46.58;;
47772;SDS011;33534;51.028;13.716;2023-12-20T05:37:02;67.82;;;45.83;;
47772;SDS011;33534;51.028;13.716;2023-12-20T05:39:28;68.93;;;43.20;;
47772;SDS011;33534;51.028;13.716;2023-12-20T05:41:56;67.28;;;43.78;;
47772;SDS011;33534;51.028;13.716;2023-12-20T05:44:22;70.93;;;45.70;;
47772;SDS011;33534;51.028;13.716;2023-12-20T05:46:48;66.25;;;43.60;;
47772;SDS011;33534;51.028;13.716;2023-12-20T05:49:14;64.38;;;42.80;;
47772;SDS011;33534;51.028;13.716;2023-12-20T05:51:40;61.95;;;41.53;;
47772;SDS011;33534;51.028;13.716;2023-12-20T05:54:06;67.35;;;44.15;;
47772;SDS011;33534;51.028;13.716;2023-12-20T05:56:32;63.78;;;43.50;;
47772;SDS011;33534;51.028;13.716;2023-12-20T05:58:58;61.30;;;40.90;;
47772;SDS011;33534;51.028;13.716;2023-12-20T06:01:24;61.42;;;42.30;;
47772;SDS011;33534;51.028;13.716;2023-12-20T06:03:50;62.03;;;41.53;;
47772;SDS011;33534;51.028;13.716;2023-12-20T06:06:16;61.75;;;40.55;;
47772;SDS011;33534;51.028;13.716;2023-12-20T06:08:42;60.03;;;39.40;;
47772;SDS011;33534;51.028;13.716;2023-12-20T06:11:08;57.97;;;39.30;;
47772;SDS011;33534;51.028;13.716;2023-12-20T06:13:34;56.65;;;38.90;;
47772;SDS011;33534;51.028;13.716;2023-12-20T06:16:00;59.42;;;39.15;;
47772;SDS011;33534;51.028;13.716;2023-12-20T06:18:26;59.20;;;40.22;;
47772;SDS011;33534;51.028;13.716;2023-12-20T06:20:52;59.28;;;37.78;;
47772;SDS011;33534;51.028;13.716;2023-12-20T06:23:18;63.17;;;39.97;;
47772;SDS011;33534;51.028;13.716;2023-12-20T06:25:44;57.25;;;37.95;;
47772;SDS011;33534;51.028;13.716;2023-12-20T06:28:10;56.05;;;37.15;;
47772;SDS011;33534;51.028;13.716;2023-12-20T06:30:39;59.10;;;37.95;;
47772;SDS011;33534;51.028;13.716;2023-12-20T06:33:05;52.88;;;36.17;;
47772;SDS011;33534;51.028;13.716;2023-12-20T06:35:32;51.63;;;36.38;;
47772;SDS011;33534;51.028;13.716;2023-12-20T06:37:58;64.45;;;37.38;;
47772;SDS011;33534;51.028;13.716;2023-12-20T06:40:24;53.67;;;36.33;;
47772;SDS011;33534;51.028;13.716;2023-12-20T06:42:52;51.70;;;35.20;;
47772;SDS011;33534;51.028;13.716;2023-12-20T06:45:18;53.40;;;36.08;;
47772;SDS011;33534;51.028;13.716;2023-12-20T06:47:44;56.13;;;35.50;;
47772;SDS011;33534;51.028;13.716;2023-12-20T06:50:10;52.63;;;35.40;;
47772;SDS011;33534;51.028;13.716;2023-12-20T06:52:36;51.92;;;35.50;;
47772;SDS011;33534;51.028;13.716;2023-12-20T06:55:02;54.60;;;34.17;;
47772;SDS011;33534;51.028;13.716;2023-12-20T06:57:29;51.55;;;34.20;;
47772;SDS011;33534;51.028;13.716;2023-12-20T06:59:55;49.95;;;34.08;;
47772;SDS011;33534;51.028;13.716;2023-12-20T07:02:22;54.35;;;34.90;;
47772;SDS011;33534;51.028;13.716;2023-12-20T07:04:48;50.28;;;32.53;;
47772;SDS011;33534;51.028;13.716;2023-12-20T07:07:14;57.55;;;34.13;;
47772;SDS011;33534;51.028;13.716;2023-12-20T07:09:40;58.10;;;31.67;;
47772;SDS011;33534;51.028;13.716;2023-12-20T07:12:08;46.00;;;31.58;;
47772;SDS011;33534;51.028;13.716;2023-12-20T07:14:34;61.78;;;34.45;;
47772;SDS011;33534;51.028;13.716;2023-12-20T07:17:00;53.05;;;31.83;;
47772;SDS011;33534;51.028;13.716;2023-12-20T07:19:26;55.72;;;32.30;;
47772;SDS011;33534;51.028;13.716;2023-12-20T07:21:52;54.67;;;30.08;;
47772;SDS011;33534;51.028;13.716;2023-12-20T07:24:18;45.97;;;22.63;;
47772;SDS011;33534;51.028;13.716;2023-12-20T07:26:44;51.67;;;26.73;;
47772;SDS011;33534;51.028;13.716;2023-12-20T07:29:10;44.15;;;28.52;;
47772;SDS011;33534;51.028;13.716;2023-12-20T07:31:36;63.42;;;27.25;;
47772;SDS011;33534;51.028;13.716;2023-12-20T07:34:03;65.70;;;28.02;;
47772;SDS011;33534;51.028;13.716;2023-12-20T07:36:30;56.08;;;26.70;;
47772;SDS011;33534;51.028;13.716;2023-12-20T07:38:56;57.42;;;28.33;;
47772;SDS011;33534;51.028;13.716;2023-12-20T07:41:22;45.22;;;21.85;;
47772;SDS011;33534;51.028;13.716;2023-12-20T07:43:48;42.55;;;15.57;;
47772;SDS011;33534;51.028;13.716;2023-12-20T07:46:14;9.18;;;5.80;;
47772;SDS011;33534;51.028;13.716;2023-12-20T07:48:40;11.52;;;5.40;;
47772;SDS011;33534;51.028;13.716;2023-12-20T07:51:07;9.73;;;5.13;;
47772;SDS011;33534;51.028;13.716;2023-12-20T07:53:34;11.32;;;5.68;;
47772;SDS011;33534;51.028;13.716;2023-12-20T07:56:00;18.13;;;8.27;;
47772;SDS011;33534;51.028;13.716;2023-12-20T07:58:26;16.40;;;7.57;;
47772;SDS011;33534;51.028;13.716;2023-12-20T08:00:55;19.30;;;11.80;;
47772;SDS011;33534;51.028;13.716;2023-12-20T08:03:20;22.25;;;11.68;;
47772;SDS011;33534;51.028;13.716;2023-12-20T08:05:46;23.55;;;10.63;;
47772;SDS011;33534;51.028;13.716;2023-12-20T08:08:12;17.33;;;10.40;;
47772;SDS011;33534;51.028;13.716;2023-12-20T08:10:38;20.38;;;10.70;;
47772;SDS011;33534;51.028;13.716;2023-12-20T08:13:04;26.02;;;11.90;;
47772;SDS011;33534;51.028;13.716;2023-12-20T08:15:31;21.13;;;12.32;;
47772;SDS011;33534;51.028;13.716;2023-12-20T08:17:57;25.48;;;13.20;;
47772;SDS011;33534;51.028;13.716;2023-12-20T08:20:23;36.95;;;15.68;;
47772;SDS011;33534;51.028;13.716;2023-12-20T08:22:49;33.10;;;15.98;;
47772;SDS011;33534;51.028;13.716;2023-12-20T08:25:15;34.85;;;15.30;;
47772;SDS011;33534;51.028;13.716;2023-12-20T08:27:41;39.95;;;14.77;;
47772;SDS011;33534;51.028;13.716;2023-12-20T08:30:08;29.50;;;15.48;;
47772;SDS011;33534;51.028;13.716;2023-12-20T08:32:34;44.13;;;16.15;;
47772;SDS011;33534;51.028;13.716;2023-12-20T08:35:00;30.23;;;16.08;;
47772;SDS011;33534;51.028;13.716;2023-12-20T08:37:27;34.42;;;15.52;;
47772;SDS011;33534;51.028;13.716;2023-12-20T08:39:53;30.55;;;16.17;;
47772;SDS011;33534;51.028;13.716;2023-12-20T08:42:19;29.67;;;16.48;;
47772;SDS011;33534;51.028;13.716;2023-12-20T08:44:45;38.40;;;16.02;;
47772;SDS011;33534;51.028;13.716;2023-12-20T08:47:10;30.23;;;15.52;;
47772;SDS011;33534;51.028;13.716;2023-12-20T08:49:38;31.15;;;15.05;;
47772;SDS011;33534;51.028;13.716;2023-12-20T08:52:04;30.27;;;14.82;;
47772;SDS011;33534;51.028;13.716;2023-12-20T08:54:31;32.28;;;14.38;;
47772;SDS011;33534;51.028;13.716;2023-12-20T08:56:57;31.67;;;14.77;;
47772;SDS011;33534;51.028;13.716;2023-12-20T08:59:23;39.15;;;15.93;;
47772;SDS011;33534;51.028;13.716;2023-12-20T09:01:49;29.00;;;13.40;;
47772;SDS011;33534;51.028;13.716;2023-12-20T09:04:19;25.42;;;14.18;;
47772;SDS011;33534;51.028;13.716;2023-12-20T09:06:45;27.25;;;14.68;;
47772;SDS011;33534;51.028;13.716;2023-12-20T09:09:11;28.00;;;13.98;;
47772;SDS011;33534;51.028;13.716;2023-12-20T09:11:39;36.20;;;14.02;;
47772;SDS011;33534;51.028;13.716;2023-12-20T09:14:05;24.63;;;14.25;;
47772;SDS011;33534;51.028;13.716;2023-12-20T09:16:31;38.85;;;14.27;;
47772;SDS011;33534;51.028;13.716;2023-12-20T09:18:57;43.67;;;14.70;;
47772;SDS011;33534;51.028;13.716;2023-12-20T09:21:23;42.95;;;14.15;;
47772;SDS011;33534;51.028;13.716;2023-12-20T09:23:49;40.90;;;14.13;;
47772;SDS011;33534;51.028;13.716;2023-12-20T09:26:15;40.58;;;14.73;;
47772;SDS011;33534;51.028;13.716;2023-12-20T09:28:41;45.78;;;14.02;;
47772;SDS011;33534;51.028;13.716;2023-12-20T09:31:07;51.83;;;13.98;;
47772;SDS011;33534;51.028;13.716;2023-12-20T09:33:33;39.80;;;15.27;;
47772;SDS011;33534;51.028;13.716;2023-12-20T09:35:59;51.53;;;14.85;;
47772;SDS011;33534;51.028;13.716;2023-12-20T09:38:25;76.97;;;20.77;;
47772;SDS011;33534;51.028;13.716;2023-12-20T09:40:51;60.80;;;17.20;;
47772;SDS011;33534;51.028;13.716;2023-12-20T09:43:19;44.78;;;15.82;;
47772;SDS011;33534;51.028;13.716;2023-12-20T09:45:46;44.15;;;16.02;;
47772;SDS011;33534;51.028;13.716;2023-12-20T09:48:13;44.72;;;15.18;;
47772;SDS011;33534;51.028;13.716;2023-12-20T09:50:40;38.67;;;14.80;;
47772;SDS011;33534;51.028;13.716;2023-12-20T09:53:07;38.97;;;14.02;;
47772;SDS011;33534;51.028;13.716;2023-12-20T09:55:34;52.40;;;15.07;;
47772;SDS011;33534;51.028;13.716;2023-12-20T09:58:01;47.13;;;13.73;;
47772;SDS011;33534;51.028;13.716;2023-12-20T10:00:27;46.38;;;14.05;;
47772;SDS011;33534;51.028;13.716;2023-12-20T10:02:57;38.72;;;14.10;;
47772;SDS011;33534;51.028;13.716;2023-12-20T10:05:27;47.22;;;14.23;;
47772;SDS011;33534;51.028;13.716;2023-12-20T10:07:53;38.05;;;13.30;;
47772;SDS011;33534;51.028;13.716;2023-12-20T10:10:19;44.40;;;14.25;;
47772;SDS011;33534;51.028;13.716;2023-12-20T10:13:01;44.42;;;13.93;;
47772;SDS011;33534;51.028;13.716;2023-12-20T10:15:28;48.83;;;13.88;;
47772;SDS011;33534;51.028;13.716;2023-12-20T10:17:54;52.42;;;14.20;;
47772;SDS011;33534;51.028;13.716;2023-12-20T10:20:20;43.50;;;14.10;;
47772;SDS011;33534;51.028;13.716;2023-12-20T10:22:46;32.50;;;12.85;;
47772;SDS011;33534;51.028;13.716;2023-12-20T10:25:13;39.15;;;12.18;;
47772;SDS011;33534;51.028;13.716;2023-12-20T10:27:39;37.97;;;13.60;;
47772;SDS011;33534;51.028;13.716;2023-12-20T10:30:06;38.00;;;12.68;;
47772;SDS011;33534;51.028;13.716;2023-12-20T10:32:32;32.50;;;13.23;;
47772;SDS011;33534;51.028;13.716;2023-12-20T10:34:58;31.70;;;12.10;;
47772;SDS011;33534;51.028;13.716;2023-12-20T10:37:24;42.40;;;12.32;;
47772;SDS011;33534;51.028;13.716;2023-12-20T10:39:51;25.95;;;11.07;;
47772;SDS011;33534;51.028;13.716;2023-12-20T10:42:20;31.23;;;12.75;;
47772;SDS011;33534;51.028;13.716;2023-12-20T10:44:47;29.90;;;12.00;;
47772;SDS011;33534;51.028;13.716;2023-12-20T10:47:13;31.98;;;12.45;;
47772;SDS011;33534;51.028;13.716;2023-12-20T10:49:39;24.27;;;11.55;;
47772;SDS011;33534;51.028;13.716;2023-12-20T10:52:06;36.30;;;12.45;;
47772;SDS011;33534;51.028;13.716;2023-12-20T10:54:32;26.20;;;11.80;;
47772;SDS011;33534;51.028;13.716;2023-12-20T10:56:58;31.48;;;10.88;;
47772;SDS011;33534;51.028;13.716;2023-12-20T10:59:25;26.90;;;10.88;;
47772;SDS011;33534;51.028;13.716;2023-12-20T11:01:53;26.50;;;11.40;;
47772;SDS011;33534;51.028;13.716;2023-12-20T11:04:25;26.00;;;10.30;;
47772;SDS011;33534;51.028;13.716;2023-12-20T11:06:59;30.48;;;11.45;;
47772;SDS011;33534;51.028;13.716;2023-12-20T11:09:35;29.27;;;10.25;;
47772;SDS011;33534;51.028;13.716;2023-12-20T11:14:40;24.35;;;10.48;;
47772;SDS011;33534;51.028;13.716;2023-12-20T11:17:08;27.73;;;9.93;;
47772;SDS011;33534;51.028;13.716;2023-12-20T11:19:36;32.92;;;11.32;;
47772;SDS011;33534;51.028;13.716;2023-12-20T11:22:03;23.83;;;9.52;;
47772;SDS011;33534;51.028;13.716;2023-12-20T11:24:31;20.33;;;9.52;;
47772;SDS011;33534;51.028;13.716;2023-12-20T11:26:59;20.00;;;10.07;;
47772;SDS011;33534;51.028;13.716;2023-12-20T11:29:32;24.80;;;10.80;;
47772;SDS011;33534;51.028;13.716;2023-12-20T11:32:00;26.17;;;10.15;;
47772;SDS011;33534;51.028;13.716;2023-12-20T11:34:26;25.58;;;10.30;;
47772;SDS011;33534;51.028;13.716;2023-12-20T11:36:57;24.02;;;9.45;;
47772;SDS011;33534;51.028;13.716;2023-12-20T11:39:24;19.90;;;10.13;;
47772;SDS011;33534;51.028;13.716;2023-12-20T11:41:51;20.17;;;9.68;;
47772;SDS011;33534;51.028;13.716;2023-12-20T11:44:17;24.20;;;9.65;;
47772;SDS011;33534;51.028;13.716;2023-12-20T11:46:44;25.73;;;9.70;;
47772;SDS011;33534;51.028;13.716;2023-12-20T11:49:10;23.23;;;10.25;;
47772;SDS011;33534;51.028;13.716;2023-12-20T11:51:40;26.63;;;9.68;;
47772;SDS011;33534;51.028;13.716;2023-12-20T11:54:06;24.25;;;9.00;;
47772;SDS011;33534;51.028;13.716;2023-12-20T11:56:32;20.42;;;8.85;;
47772;SDS011;33534;51.028;13.716;2023-12-20T11:58:58;22.55;;;8.63;;
47772;SDS011;33534;51.028;13.716;2023-12-20T12:01:24;18.17;;;8.10;;
47772;SDS011;33534;51.028;13.716;2023-12-20T12:04:01;20.95;;;7.97;;
47772;SDS011;33534;51.028;13.716;2023-12-20T12:06:27;19.67;;;7.85;;
47772;SDS011;33534;51.028;13.716;2023-12-20T12:08:54;16.63;;;8.20;;
47772;SDS011;33534;51.028;13.716;2023-12-20T12:11:20;24.02;;;8.80;;
47772;SDS011;33534;51.028;13.716;2023-12-20T12:13:46;18.38;;;8.15;;
47772;SDS011;33534;51.028;13.716;2023-12-20T12:16:13;19.95;;;7.38;;
47772;SDS011;33534;51.028;13.716;2023-12-20T12:18:43;15.93;;;8.02;;
47772;SDS011;33534;51.028;13.716;2023-12-20T12:21:09;25.00;;;7.05;;
47772;SDS011;33534;51.028;13.716;2023-12-20T12:23:35;20.75;;;7.72;;
47772;SDS011;33534;51.028;13.716;2023-12-20T12:26:03;15.38;;;7.13;;
47772;SDS011;33534;51.028;13.716;2023-12-20T12:28:29;15.88;;;7.70;;
47772;SDS011;33534;51.028;13.716;2023-12-20T12:31:00;14.07;;;7.20;;
47772;SDS011;33534;51.028;13.716;2023-12-20T12:33:26;13.85;;;6.80;;
47772;SDS011;33534;51.028;13.716;2023-12-20T12:35:52;14.93;;;7.10;;
47772;SDS011;33534;51.028;13.716;2023-12-20T12:38:22;14.48;;;6.75;;
47772;SDS011;33534;51.028;13.716;2023-12-20T12:40:48;12.90;;;7.45;;
47772;SDS011;33534;51.028;13.716;2023-12-20T12:43:15;16.23;;;6.65;;
47772;SDS011;33534;51.028;13.716;2023-12-20T12:45:41;15.10;;;7.10;;
47772;SDS011;33534;51.028;13.716;2023-12-20T12:48:07;17.13;;;7.05;;
47772;SDS011;33534;51.028;13.716;2023-12-20T12:50:33;13.25;;;6.28;;
47772;SDS011;33534;51.028;13.716;2023-12-20T12:52:59;11.50;;;6.10;;
47772;SDS011;33534;51.028;13.716;2023-12-20T12:55:25;14.27;;;7.00;;
47772;SDS011;33534;51.028;13.716;2023-12-20T12:57:51;12.88;;;6.35;;
47772;SDS011;33534;51.028;13.716;2023-12-20T13:00:17;15.13;;;6.65;;
47772;SDS011;33534;51.028;13.716;2023-12-20T13:02:44;14.85;;;6.75;;
47772;SDS011;33534;51.028;13.716;2023-12-20T13:05:10;14.27;;;6.93;;
47772;SDS011;33534;51.028;13.716;2023-12-20T13:07:36;15.18;;;7.30;;
47772;SDS011;33534;51.028;13.716;2023-12-20T13:10:02;18.60;;;6.93;;
47772;SDS011;33534;51.028;13.716;2023-12-20T13:12:29;16.25;;;5.68;;
47772;SDS011;33534;51.028;13.716;2023-12-20T13:14:55;12.52;;;5.97;;
47772;SDS011;33534;51.028;13.716;2023-12-20T13:17:21;14.23;;;7.03;;
47772;SDS011;33534;51.028;13.716;2023-12-20T13:19:47;22.88;;;7.07;;
47772;SDS011;33534;51.028;13.716;2023-12-20T13:22:14;11.95;;;6.13;;
47772;SDS011;33534;51.028;13.716;2023-12-20T13:24:41;15.85;;;6.82;;
47772;SDS011;33534;51.028;13.716;2023-12-20T13:27:09;12.63;;;6.22;;
47772;SDS011;33534;51.028;13.716;2023-12-20T13:29:35;11.75;;;5.90;;
47772;SDS011;33534;51.028;13.716;2023-12-20T13:32:01;28.05;;;6.07;;
47772;SDS011;33534;51.028;13.716;2023-12-20T13:34:28;13.68;;;6.05;;
47772;SDS011;33534;51.028;13.716;2023-12-20T13:36:54;10.90;;;5.65;;
47772;SDS011;33534;51.028;13.716;2023-12-20T13:39:21;11.70;;;5.95;;
47772;SDS011;33534;51.028;13.716;2023-12-20T13:41:47;15.52;;;5.93;;
47772;SDS011;33534;51.028;13.716;2023-12-20T13:44:13;13.93;;;6.28;;
47772;SDS011;33534;51.028;13.716;2023-12-20T13:46:40;10.07;;;5.35;;
47772;SDS011;33534;51.028;13.716;2023-12-20T13:49:06;14.18;;;6.40;;
47772;SDS011;33534;51.028;13.716;2023-12-20T13:51:33;15.95;;;5.72;;
47772;SDS011;33534;51.028;13.716;2023-12-20T13:53:59;17.10;;;6.68;;
47772;SDS011;33534;51.028;13.716;2023-12-20T13:56:25;10.05;;;5.82;;
47772;SDS011;33534;51.028;13.716;2023-12-20T13:58:51;12.68;;;6.15;;
47772;SDS011;33534;51.028;13.716;2023-12-20T14:01:17;11.63;;;5.35;;
47772;SDS011;33534;51.028;13.716;2023-12-20T14:03:43;9.93;;;5.88;;